Time;durP1;ratioP1;P1;durP2;ratioP2;P2;SDS_P1;SDS_P2;PMS_P1;PMS_P2;Temp;Humidity;BMP_temperature;BMP_pressure;BME280_temperature;BME280_humidity;BME280_pressure;Samples;Min_cycle;Max_cycle;Signal;HPM_P1;HPM_P2
2022/03/11 00:01:07;;;;;;;16.87;13.77;;;;;;;;;;2076921;28;20601;-55
2022/03/11 00:02:08;;;;;;;17.50;12.97;;;;;;;;;;2068612;28;20188;-57
2022/03/11 00:03:10;;;;;;;16.43;12.90;;;;;;;;;;2072036;28;20200;-57
2022/03/11 00:04:10;;;;;;;15.23;13.03;;;;;;;;;;2073101;28;20189;-55
2022/03/11 00:05:11;;;;;;;15.70;13.00;;;;;;;;;;2075832;28;20177;-54
2022/03/11 00:06:11;;;;;;;17.30;14.33;;;;;;;;;;2073841;28;20170;-55
2022/03/11 00:07:11;;;;;;;24.03;18.20;;;;;;;;;;2077239;28;20216;-57
2022/03/11 00:08:12;;;;;;;21.07;16.20;;;;;;;;;;2076541;28;20169;-53
2022/03/11 00:09:12;;;;;;;18.93;16.00;;;;;;;;;;2069531;28;20673;-56
2022/03/11 00:10:12;;;;;;;16.13;13.33;;;;;;;;;;2070028;28;20247;-54
2022/03/11 00:11:13;;;;;;;21.07;15.47;;;;;;;;;;2073156;28;20211;-57
2022/03/11 00:12:13;;;;;;;18.30;15.03;;;;;;;;;;2073632;28;20173;-55
2022/03/11 00:13:13;;;;;;;20.23;17.57;;;;;;;;;;2062889;28;20327;-54
2022/03/11 00:14:14;;;;;;;19.93;16.13;;;;;;;;;;2065006;28;20697;-53
2022/03/11 00:15:14;;;;;;;20.00;16.10;;;;;;;;;;2066263;28;20192;-59
2022/03/11 00:16:15;;;;;;;19.00;15.17;;;;;;;;;;2070059;28;20189;-58
2022/03/11 00:17:15;;;;;;;18.77;14.03;;;;;;;;;;2071473;28;20173;-55
2022/03/11 00:18:15;;;;;;;19.83;14.33;;;;;;;;;;2073252;28;21936;-55
2022/03/11 00:19:16;;;;;;;18.67;15.73;;;;;;;;;;2074044;28;20173;-56
2022/03/11 00:20:19;;;;;;;17.03;14.00;;;;;;;;;;2074098;28;20612;-57
2022/03/11 00:21:21;;;;;;;17.80;14.77;;;;;;;;;;2072965;28;20161;-58
2022/03/11 00:22:21;;;;;;;18.70;14.47;;;;;;;;;;2073839;28;20185;-57
2022/03/11 00:23:21;;;;;;;17.53;15.10;;;;;;;;;;2073002;28;20580;-56
2022/03/11 00:24:22;;;;;;;18.40;15.37;;;;;;;;;;2073039;28;20696;-57
2022/03/11 00:25:22;;;;;;;22.83;14.47;;;;;;;;;;2073312;28;20196;-58
2022/03/11 00:26:22;;;;;;;18.93;14.70;;;;;;;;;;2066452;28;20281;-58
2022/03/11 00:27:22;;;;;;;16.17;13.60;;;;;;;;;;2064622;28;20213;-59
2022/03/11 00:28:23;;;;;;;16.20;14.10;;;;;;;;;;2067223;28;20213;-58
2022/03/11 00:29:23;;;;;;;15.80;14.10;;;;;;;;;;2070964;28;20268;-59
2022/03/11 00:30:23;;;;;;;16.70;14.53;;;;;;;;;;2066371;28;20177;-58
2022/03/11 00:31:25;;;;;;;18.83;15.10;;;;;;;;;;2064377;28;20208;-58
2022/03/11 00:32:25;;;;;;;16.80;14.27;;;;;;;;;;2066074;28;20196;-59
2022/03/11 00:33:25;;;;;;;20.57;15.57;;;;;;;;;;2071688;28;20606;-57
2022/03/11 00:34:25;;;;;;;18.87;14.77;;;;;;;;;;2073689;28;20684;-58
2022/03/11 00:35:25;;;;;;;16.87;13.80;;;;;;;;;;2073788;28;20539;-56
2022/03/11 00:36:26;;;;;;;20.00;14.90;;;;;;;;;;2073327;28;20169;-57
2022/03/11 00:37:26;;;;;;;18.10;15.20;;;;;;;;;;2073316;28;20545;-57
2022/03/11 00:38:27;;;;;;;18.47;15.70;;;;;;;;;;2073377;28;20589;-56
2022/03/11 00:39:27;;;;;;;17.73;14.30;;;;;;;;;;2066491;28;20185;-56
2022/03/11 00:40:28;;;;;;;19.27;14.67;;;;;;;;;;2072401;28;20200;-57
2022/03/11 00:41:28;;;;;;;18.10;15.53;;;;;;;;;;2073283;28;20621;-56
2022/03/11 00:42:28;;;;;;;19.90;14.73;;;;;;;;;;2073508;28;20169;-59
2022/03/11 00:43:29;;;;;;;18.50;15.03;;;;;;;;;;2071943;28;20677;-60
2022/03/11 00:44:30;;;;;;;20.97;14.60;;;;;;;;;;2065362;28;20732;-62
2022/03/11 00:45:31;;;;;;;21.47;14.97;;;;;;;;;;2072982;28;20180;-57
2022/03/11 00:46:31;;;;;;;20.90;15.70;;;;;;;;;;2072987;28;20169;-58
2022/03/11 00:47:31;;;;;;;19.47;14.87;;;;;;;;;;2073122;28;20549;-57
2022/03/11 00:48:32;;;;;;;18.73;14.40;;;;;;;;;;2073024;28;20184;-57
2022/03/11 00:49:32;;;;;;;18.13;15.07;;;;;;;;;;2077370;28;20218;-60
2022/03/11 00:50:32;;;;;;;18.37;14.83;;;;;;;;;;2080132;28;20259;-58
2022/03/11 00:51:33;;;;;;;17.83;15.50;;;;;;;;;;2064643;28;20199;-58
2022/03/11 00:52:33;;;;;;;18.03;14.93;;;;;;;;;;2048902;29;20181;-57
2022/03/11 00:53:34;;;;;;;18.33;15.00;;;;;;;;;;2049263;29;20230;-58
2022/03/11 00:54:34;;;;;;;21.70;15.47;;;;;;;;;;2073376;28;20181;-59
2022/03/11 00:55:34;;;;;;;19.20;15.10;;;;;;;;;;2073276;28;20176;-58
2022/03/11 00:56:34;;;;;;;19.17;15.63;;;;;;;;;;2081531;28;20220;-56
2022/03/11 00:57:35;;;;;;;17.90;15.13;;;;;;;;;;2072621;28;20177;-60
2022/03/11 00:58:35;;;;;;;18.53;15.27;;;;;;;;;;2067558;28;20185;-58
2022/03/11 00:59:35;;;;;;;18.50;15.80;;;;;;;;;;2073011;28;20173;-60
2022/03/11 01:00:35;;;;;;;19.37;15.53;;;;;;;;;;2073924;28;20209;-58
2022/03/11 01:01:36;;;;;;;21.87;16.53;;;;;;;;;;2073209;28;20173;-56
2022/03/11 01:02:36;;;;;;;21.23;15.90;;;;;;;;;;2072283;28;20168;-58
2022/03/11 01:03:37;;;;;;;18.80;15.43;;;;;;;;;;2064859;28;20640;-58
2022/03/11 01:04:38;;;;;;;18.93;15.23;;;;;;;;;;2073866;28;20164;-58
2022/03/11 01:05:39;;;;;;;20.20;16.30;;;;;;;;;;2073001;28;20197;-58
2022/03/11 01:06:40;;;;;;;19.27;16.43;;;;;;;;;;2073631;28;20634;-57
2022/03/11 01:07:40;;;;;;;20.43;16.90;;;;;;;;;;2072770;28;20180;-59
2022/03/11 01:08:40;;;;;;;19.90;15.47;;;;;;;;;;2073049;28;20478;-57
2022/03/11 01:09:41;;;;;;;20.03;16.23;;;;;;;;;;2063143;28;20679;-60
2022/03/11 01:10:41;;;;;;;20.00;16.53;;;;;;;;;;2064911;28;20190;-59
2022/03/11 01:11:41;;;;;;;21.57;15.93;;;;;;;;;;2074018;28;20165;-64
2022/03/11 01:12:43;;;;;;;23.27;16.13;;;;;;;;;;2073318;28;20185;-55
2022/03/11 01:13:43;;;;;;;20.67;16.13;;;;;;;;;;2071575;28;20220;-58
2022/03/11 01:14:43;;;;;;;21.23;16.83;;;;;;;;;;2073387;28;20239;-55
2022/03/11 01:15:43;;;;;;;18.63;15.37;;;;;;;;;;2073648;28;20173;-60
2022/03/11 01:16:44;;;;;;;21.43;16.40;;;;;;;;;;2065705;28;20184;-58
2022/03/11 01:17:44;;;;;;;21.87;16.53;;;;;;;;;;2069788;28;20221;-57
2022/03/11 01:18:44;;;;;;;18.20;15.43;;;;;;;;;;2073632;28;20185;-60
2022/03/11 01:19:44;;;;;;;22.63;16.53;;;;;;;;;;2073743;28;20263;-57
2022/03/11 01:20:45;;;;;;;19.90;16.23;;;;;;;;;;2073624;28;20576;-57
2022/03/11 01:21:45;;;;;;;20.67;15.57;;;;;;;;;;2068332;28;20693;-57
2022/03/11 01:22:45;;;;;;;20.53;16.30;;;;;;;;;;2067211;28;20273;-58
2022/03/11 01:23:45;;;;;;;22.13;16.30;;;;;;;;;;2068873;28;20563;-57
2022/03/11 01:24:46;;;;;;;24.40;17.40;;;;;;;;;;2073237;28;20161;-57
2022/03/11 01:25:46;;;;;;;23.03;17.10;;;;;;;;;;2060005;28;20282;-58
2022/03/11 01:26:46;;;;;;;19.63;16.23;;;;;;;;;;2066872;28;20511;-58
2022/03/11 01:27:48;;;;;;;19.60;15.40;;;;;;;;;;2073577;28;20174;-61
2022/03/11 01:28:49;;;;;;;21.27;17.00;;;;;;;;;;2061376;28;20526;-58
2022/03/11 01:29:50;;;;;;;18.83;16.53;;;;;;;;;;2071237;28;20184;-53
2022/03/11 01:30:50;;;;;;;23.40;16.23;;;;;;;;;;2073276;28;20177;-58
2022/03/11 01:31:51;;;;;;;20.60;16.50;;;;;;;;;;2072770;28;20199;-58
2022/03/11 01:32:51;;;;;;;21.80;15.77;;;;;;;;;;2066464;28;20197;-57
2022/03/11 01:33:51;;;;;;;21.47;16.07;;;;;;;;;;2069813;28;20169;-56
2022/03/11 01:34:52;;;;;;;23.10;16.23;;;;;;;;;;2073610;28;20190;-57
2022/03/11 01:35:52;;;;;;;22.83;17.23;;;;;;;;;;2073591;28;20542;-56
2022/03/11 01:36:52;;;;;;;25.53;16.43;;;;;;;;;;2071903;28;20193;-59
2022/03/11 01:37:52;;;;;;;21.37;16.60;;;;;;;;;;2068075;28;20169;-58
2022/03/11 01:38:54;;;;;;;20.20;16.30;;;;;;;;;;2072445;28;20537;-59
2022/03/11 01:39:54;;;;;;;19.60;15.67;;;;;;;;;;2067703;28;20209;-58
2022/03/11 01:40:54;;;;;;;21.03;16.83;;;;;;;;;;2073581;28;20231;-58
2022/03/11 01:41:54;;;;;;;21.00;16.40;;;;;;;;;;2073782;28;20187;-58
2022/03/11 01:42:55;;;;;;;20.70;17.57;;;;;;;;;;2073280;28;20219;-57
2022/03/11 01:44:08;;;;;;;23.47;17.87;;;;;;;;;;2073347;28;20177;-58
2022/03/11 01:45:09;;;;;;;21.53;16.30;;;;;;;;;;2072802;28;20199;-58
2022/03/11 01:46:09;;;;;;;25.53;17.53;;;;;;;;;;2073378;28;20563;-59
2022/03/11 01:47:09;;;;;;;19.47;16.63;;;;;;;;;;2073018;28;20169;-56
2022/03/11 01:48:10;;;;;;;21.50;15.80;;;;;;;;;;2073602;28;20165;-59
2022/03/11 01:49:11;;;;;;;23.40;17.20;;;;;;;;;;2073586;28;20180;-57
2022/03/11 01:50:12;;;;;;;23.67;16.70;;;;;;;;;;2064984;28;20165;-58
2022/03/11 01:51:12;;;;;;;24.07;17.33;;;;;;;;;;2068819;28;20662;-56
2022/03/11 01:52:13;;;;;;;22.80;17.63;;;;;;;;;;2072796;28;20181;-58
2022/03/11 01:53:13;;;;;;;24.30;17.77;;;;;;;;;;2073060;28;20196;-58
2022/03/11 01:54:15;;;;;;;25.73;17.47;;;;;;;;;;2072162;28;20246;-58
2022/03/11 01:55:15;;;;;;;20.53;16.73;;;;;;;;;;2072880;28;20165;-56
2022/03/11 01:56:17;;;;;;;23.07;18.20;;;;;;;;;;2073855;28;20284;-57
2022/03/11 01:57:17;;;;;;;21.13;17.80;;;;;;;;;;2072389;28;20300;-56
2022/03/11 01:58:18;;;;;;;22.53;17.67;;;;;;;;;;2073603;28;20244;-57
2022/03/11 01:59:19;;;;;;;21.27;17.10;;;;;;;;;;2073030;28;20181;-54
2022/03/11 02:00:19;;;;;;;25.10;18.80;;;;;;;;;;2073461;28;20212;-58
2022/03/11 02:01:20;;;;;;;27.63;18.17;;;;;;;;;;2071603;28;20621;-55
2022/03/11 02:02:21;;;;;;;21.60;17.23;;;;;;;;;;2073441;28;20172;-57
2022/03/11 02:03:21;;;;;;;22.50;17.87;;;;;;;;;;2072591;28;20243;-59
2022/03/11 02:04:21;;;;;;;26.43;17.90;;;;;;;;;;2073315;28;20187;-58
2022/03/11 02:05:21;;;;;;;24.00;18.13;;;;;;;;;;2073115;28;20164;-57
2022/03/11 02:06:22;;;;;;;22.47;17.80;;;;;;;;;;2072707;28;20177;-54
2022/03/11 02:07:22;;;;;;;22.37;18.17;;;;;;;;;;2073045;28;20561;-56
2022/03/11 02:08:22;;;;;;;20.73;17.23;;;;;;;;;;2072584;28;20219;-58
2022/03/11 02:09:23;;;;;;;24.80;18.23;;;;;;;;;;2073396;28;20169;-60
2022/03/11 02:10:23;;;;;;;21.63;17.20;;;;;;;;;;2072406;28;20181;-57
2022/03/11 02:11:24;;;;;;;21.97;17.27;;;;;;;;;;2073146;28;20599;-54
2022/03/11 02:12:28;;;;;;;22.17;17.07;;;;;;;;;;2072103;28;21230;-58
2022/03/11 02:13:40;;;;;;;22.77;17.73;;;;;;;;;;2068978;28;20181;-56
2022/03/11 02:14:42;;;;;;;22.80;17.27;;;;;;;;;;2065796;28;20263;-60
2022/03/11 02:15:42;;;;;;;23.20;17.83;;;;;;;;;;2073302;28;20284;-59
2022/03/11 02:16:42;;;;;;;23.67;17.67;;;;;;;;;;2065215;28;20185;-54
2022/03/11 02:17:42;;;;;;;25.60;18.87;;;;;;;;;;2067034;28;20201;-56
2022/03/11 02:18:43;;;;;;;22.50;18.60;;;;;;;;;;2073308;28;20654;-56
2022/03/11 02:19:43;;;;;;;21.97;16.63;;;;;;;;;;2072873;28;20268;-57
2022/03/11 02:20:48;;;;;;;22.63;17.80;;;;;;;;;;2067432;28;20201;-55
2022/03/11 02:21:49;;;;;;;27.13;19.00;;;;;;;;;;2074844;28;20559;-57
2022/03/11 02:22:51;;;;;;;24.23;17.73;;;;;;;;;;2074544;28;20720;-59
2022/03/11 02:23:55;;;;;;;22.87;17.20;;;;;;;;;;2068300;28;20686;-58
2022/03/11 02:24:56;;;;;;;22.27;17.47;;;;;;;;;;2071791;28;20170;-59
2022/03/11 02:25:56;;;;;;;24.97;18.30;;;;;;;;;;2074381;28;20264;-57
2022/03/11 02:26:56;;;;;;;26.03;18.13;;;;;;;;;;2074285;28;20599;-58
2022/03/11 02:27:57;;;;;;;26.23;19.30;;;;;;;;;;2065921;28;20681;-59
2022/03/11 02:28:58;;;;;;;25.00;19.10;;;;;;;;;;2063793;28;20614;-57
2022/03/11 02:29:58;;;;;;;24.17;18.07;;;;;;;;;;2065387;28;20174;-57
2022/03/11 02:30:58;;;;;;;23.37;18.03;;;;;;;;;;2062979;28;20182;-55
2022/03/11 02:32:01;;;;;;;27.77;18.73;;;;;;;;;;2069459;28;20181;-56
2022/03/11 02:33:01;;;;;;;22.97;18.77;;;;;;;;;;2070679;28;20864;-57
2022/03/11 02:34:04;;;;;;;25.97;19.10;;;;;;;;;;2074735;28;20176;-58
2022/03/11 02:35:04;;;;;;;24.33;18.20;;;;;;;;;;2071149;28;20560;-58
2022/03/11 02:36:05;;;;;;;22.10;18.10;;;;;;;;;;2070216;28;20188;-56
2022/03/11 02:37:05;;;;;;;26.70;19.23;;;;;;;;;;2071479;28;20185;-56
2022/03/11 02:38:06;;;;;;;24.87;19.30;;;;;;;;;;2070218;28;20185;-57
2022/03/11 02:39:07;;;;;;;26.33;18.67;;;;;;;;;;2070005;28;20182;-56
2022/03/11 02:40:08;;;;;;;24.40;19.10;;;;;;;;;;2074159;28;20216;-58
2022/03/11 02:41:08;;;;;;;27.37;20.00;;;;;;;;;;2074654;28;20184;-58
2022/03/11 02:42:08;;;;;;;23.40;17.97;;;;;;;;;;2074303;28;20176;-56
2022/03/11 02:43:09;;;;;;;24.43;19.60;;;;;;;;;;2069542;28;20287;-60
2022/03/11 02:44:09;;;;;;;29.50;20.03;;;;;;;;;;2068543;28;20260;-59
2022/03/11 02:45:10;;;;;;;25.00;18.20;;;;;;;;;;2073865;28;20204;-60
2022/03/11 02:46:11;;;;;;;22.93;19.10;;;;;;;;;;2074550;28;20176;-58
2022/03/11 02:47:11;;;;;;;23.73;19.20;;;;;;;;;;2068803;28;20700;-59
2022/03/11 02:48:11;;;;;;;24.10;18.53;;;;;;;;;;2069205;28;20616;-59
2022/03/11 02:49:12;;;;;;;26.10;19.00;;;;;;;;;;2071874;28;20204;-59
2022/03/11 02:50:12;;;;;;;26.00;20.10;;;;;;;;;;2074153;28;20223;-56
2022/03/11 02:51:12;;;;;;;26.20;20.40;;;;;;;;;;2073957;28;20632;-58
2022/03/11 02:52:13;;;;;;;25.70;19.53;;;;;;;;;;2069266;28;20657;-53
2022/03/11 02:53:13;;;;;;;22.17;18.43;;;;;;;;;;2071050;28;20209;-58
2022/03/11 02:54:14;;;;;;;26.80;19.53;;;;;;;;;;2071374;28;20184;-58
2022/03/11 02:55:14;;;;;;;28.63;20.00;;;;;;;;;;2074500;28;20184;-54
2022/03/11 02:56:15;;;;;;;24.63;18.97;;;;;;;;;;2070030;28;20221;-57
2022/03/11 02:57:15;;;;;;;26.53;19.67;;;;;;;;;;2071238;28;20176;-56
2022/03/11 02:58:16;;;;;;;25.27;20.43;;;;;;;;;;2074662;28;20176;-57
2022/03/11 02:59:16;;;;;;;24.43;19.50;;;;;;;;;;2071634;28;20608;-56
2022/03/11 03:00:16;;;;;;;28.10;19.40;;;;;;;;;;2071978;28;20173;-57
2022/03/11 03:01:17;;;;;;;26.03;20.57;;;;;;;;;;2074590;28;20676;-58
2022/03/11 03:02:18;;;;;;;25.30;18.70;;;;;;;;;;2074639;28;20176;-59
2022/03/11 03:03:18;;;;;;;28.47;21.30;;;;;;;;;;2070566;28;20554;-57
2022/03/11 03:04:18;;;;;;;27.57;20.47;;;;;;;;;;2071550;28;20673;-61
2022/03/11 03:05:19;;;;;;;26.90;19.57;;;;;;;;;;2067229;28;20194;-57
2022/03/11 03:06:19;;;;;;;29.30;20.00;;;;;;;;;;2071590;28;20263;-57
2022/03/11 03:07:19;;;;;;;26.47;20.40;;;;;;;;;;2072762;28;20289;-56
2022/03/11 03:08:20;;;;;;;27.00;19.30;;;;;;;;;;2072919;28;20205;-60
2022/03/11 03:09:20;;;;;;;24.07;19.17;;;;;;;;;;2072481;28;20172;-55
2022/03/11 03:10:21;;;;;;;26.70;20.20;;;;;;;;;;2067715;28;20209;-59
2022/03/11 03:11:21;;;;;;;25.23;19.77;;;;;;;;;;2067194;28;20189;-56
2022/03/11 03:12:21;;;;;;;26.37;19.73;;;;;;;;;;2072658;28;20181;-57
2022/03/11 03:13:21;;;;;;;27.57;20.00;;;;;;;;;;2069842;28;20210;-56
2022/03/11 03:14:21;;;;;;;27.20;20.50;;;;;;;;;;2072118;28;20177;-58
2022/03/11 03:15:22;;;;;;;26.93;18.97;;;;;;;;;;2074706;28;20650;-60
2022/03/11 03:16:22;;;;;;;25.10;19.97;;;;;;;;;;2073840;28;20664;-54
2022/03/11 03:17:22;;;;;;;25.50;20.17;;;;;;;;;;2074583;28;20189;-55
2022/03/11 03:18:23;;;;;;;25.17;19.87;;;;;;;;;;2077610;28;20180;-57
2022/03/11 03:19:23;;;;;;;26.97;20.97;;;;;;;;;;2071946;28;20209;-61
2022/03/11 03:20:23;;;;;;;27.57;20.17;;;;;;;;;;2075815;28;20196;-57
2022/03/11 03:21:27;;;;;;;26.43;20.10;;;;;;;;;;2073104;28;20181;-56
2022/03/11 03:22:27;;;;;;;28.47;20.33;;;;;;;;;;2069037;28;20181;-58
2022/03/11 03:23:27;;;;;;;29.63;20.37;;;;;;;;;;2075073;28;20203;-58
2022/03/11 03:24:27;;;;;;;31.53;20.50;;;;;;;;;;2060873;28;20206;-59
2022/03/11 03:25:30;;;;;;;28.10;20.27;;;;;;;;;;2068776;28;20241;-54
2022/03/11 03:26:31;;;;;;;26.10;19.83;;;;;;;;;;2069641;28;20244;-57
2022/03/11 03:27:31;;;;;;;27.83;20.30;;;;;;;;;;2075492;28;20171;-57
2022/03/11 03:28:31;;;;;;;27.73;20.10;;;;;;;;;;2076170;28;20207;-60
2022/03/11 03:29:32;;;;;;;29.23;20.33;;;;;;;;;;2076383;28;20180;-61
2022/03/11 03:30:32;;;;;;;30.80;20.47;;;;;;;;;;2076202;28;20656;-57
2022/03/11 03:31:32;;;;;;;29.17;21.90;;;;;;;;;;2076469;28;20695;-55
2022/03/11 03:32:32;;;;;;;29.10;20.17;;;;;;;;;;2068525;28;20193;-54
2022/03/11 03:33:33;;;;;;;25.13;20.33;;;;;;;;;;2075713;28;20481;-56
2022/03/11 03:34:34;;;;;;;28.57;20.53;;;;;;;;;;2075000;28;20219;-57
2022/03/11 03:35:35;;;;;;;27.83;21.07;;;;;;;;;;2075165;28;20650;-58
2022/03/11 03:36:35;;;;;;;28.40;20.80;;;;;;;;;;2075551;28;20188;-59
2022/03/11 03:37:35;;;;;;;28.03;20.97;;;;;;;;;;2067117;28;20172;-57
2022/03/11 03:38:35;;;;;;;28.17;20.97;;;;;;;;;;2066929;28;20212;-60
2022/03/11 03:39:36;;;;;;;26.03;20.17;;;;;;;;;;2074957;28;20179;-60
2022/03/11 03:40:37;;;;;;;26.87;21.13;;;;;;;;;;2075722;28;20196;-58
2022/03/11 03:41:37;;;;;;;27.47;21.07;;;;;;;;;;2076012;28;20687;-58
2022/03/11 03:42:37;;;;;;;27.90;20.97;;;;;;;;;;2075956;28;20189;-58
2022/03/11 03:43:38;;;;;;;25.27;20.17;;;;;;;;;;2075444;28;20227;-55
2022/03/11 03:44:38;;;;;;;26.97;20.00;;;;;;;;;;2075977;28;20261;-59
2022/03/11 03:45:40;;;;;;;30.13;20.43;;;;;;;;;;2067739;28;20182;-58
2022/03/11 03:46:40;;;;;;;27.10;20.47;;;;;;;;;;2075483;28;20184;-57
2022/03/11 03:47:40;;;;;;;30.13;21.90;;;;;;;;;;2075593;28;20211;-59
2022/03/11 03:48:41;;;;;;;26.87;20.73;;;;;;;;;;2062597;28;20196;-59
2022/03/11 03:49:41;;;;;;;27.33;20.07;;;;;;;;;;2071620;28;20170;-60
2022/03/11 03:50:41;;;;;;;28.10;21.37;;;;;;;;;;2072888;28;20171;-59
2022/03/11 03:51:42;;;;;;;26.63;21.47;;;;;;;;;;2069452;28;20328;-57
2022/03/11 03:52:42;;;;;;;28.93;20.30;;;;;;;;;;2074455;28;20184;-58
2022/03/11 03:53:42;;;;;;;27.70;21.03;;;;;;;;;;2075277;28;20177;-56
2022/03/11 03:54:44;;;;;;;29.13;20.37;;;;;;;;;;2074979;28;20203;-59
2022/03/11 03:55:44;;;;;;;29.60;20.50;;;;;;;;;;2074264;28;20448;-59
2022/03/11 03:56:45;;;;;;;30.93;21.60;;;;;;;;;;2074500;28;20415;-57
2022/03/11 03:57:45;;;;;;;29.20;21.07;;;;;;;;;;2070539;28;20703;-58
2022/03/11 03:58:47;;;;;;;28.17;20.80;;;;;;;;;;2074773;28;20165;-59
2022/03/11 03:59:47;;;;;;;27.83;20.60;;;;;;;;;;2074408;28;20169;-57
2022/03/11 04:00:50;;;;;;;25.67;20.63;;;;;;;;;;2075425;28;20247;-61
2022/03/11 04:01:51;;;;;;;32.57;22.37;;;;;;;;;;2068803;28;20259;-55
2022/03/11 04:02:51;;;;;;;31.60;22.40;;;;;;;;;;2075967;28;20221;-55
2022/03/11 04:03:51;;;;;;;28.63;22.13;;;;;;;;;;2076003;28;20175;-61
2022/03/11 04:04:52;;;;;;;27.83;21.53;;;;;;;;;;2071511;28;20227;-57
2022/03/11 04:05:52;;;;;;;31.20;21.77;;;;;;;;;;2076274;28;20180;-59
2022/03/11 04:06:52;;;;;;;29.90;21.43;;;;;;;;;;2076047;28;20199;-57
2022/03/11 04:07:53;;;;;;;29.00;21.47;;;;;;;;;;2075954;28;20176;-60
2022/03/11 04:08:56;;;;;;;31.33;22.77;;;;;;;;;;2076330;28;20173;-59
2022/03/11 04:09:56;;;;;;;28.73;21.43;;;;;;;;;;2076301;28;20651;-55
2022/03/11 04:10:57;;;;;;;29.73;21.27;;;;;;;;;;2075769;28;20434;-57
2022/03/11 04:11:57;;;;;;;29.83;21.67;;;;;;;;;;2075935;28;20184;-58
2022/03/11 04:12:58;;;;;;;27.70;20.60;;;;;;;;;;2081255;23;20689;-57
2022/03/11 04:13:58;;;;;;;29.83;21.67;;;;;;;;;;2073190;28;20192;-61
2022/03/11 04:14:58;;;;;;;29.93;21.00;;;;;;;;;;2073475;28;20256;-61
2022/03/11 04:15:59;;;;;;;35.07;24.23;;;;;;;;;;2071625;28;20185;-62
2022/03/11 04:17:00;;;;;;;32.27;21.77;;;;;;;;;;2073824;28;20173;-60
2022/03/11 04:18:00;;;;;;;26.10;19.57;;;;;;;;;;2074540;28;20173;-60
2022/03/11 04:19:00;;;;;;;28.97;21.00;;;;;;;;;;2070636;28;20170;-59
2022/03/11 04:20:01;;;;;;;25.07;20.03;;;;;;;;;;2068463;28;20177;-60
2022/03/11 04:21:01;;;;;;;29.33;21.13;;;;;;;;;;2069514;28;20205;-59
2022/03/11 04:22:02;;;;;;;29.70;20.87;;;;;;;;;;2073697;28;20656;-62
2022/03/11 04:23:02;;;;;;;26.20;19.73;;;;;;;;;;2073226;28;20187;-60
2022/03/11 04:24:04;;;;;;;28.77;21.50;;;;;;;;;;2073271;28;20165;-59
2022/03/11 04:25:04;;;;;;;29.23;20.73;;;;;;;;;;2065307;28;20259;-58
2022/03/11 04:26:05;;;;;;;27.73;20.90;;;;;;;;;;2065030;28;20461;-60
2022/03/11 04:27:06;;;;;;;31.70;21.70;;;;;;;;;;2069730;28;20185;-59
2022/03/11 04:28:06;;;;;;;29.53;20.00;;;;;;;;;;2069411;28;20703;-59
2022/03/11 04:29:06;;;;;;;29.07;22.00;;;;;;;;;;2073783;28;20223;-60
2022/03/11 04:30:07;;;;;;;32.33;21.67;;;;;;;;;;2073440;28;20268;-57
2022/03/11 04:31:08;;;;;;;30.07;20.47;;;;;;;;;;2073012;28;20329;-58
2022/03/11 04:32:08;;;;;;;31.27;21.70;;;;;;;;;;2073021;28;20165;-60
2022/03/11 04:33:11;;;;;;;30.00;20.83;;;;;;;;;;2073109;28;20240;-61
2022/03/11 04:34:11;;;;;;;26.40;20.57;;;;;;;;;;2072577;28;20591;-61
2022/03/11 04:35:12;;;;;;;27.77;21.00;;;;;;;;;;2068783;28;20773;-60
2022/03/11 04:36:13;;;;;;;29.83;21.03;;;;;;;;;;2070575;28;20414;-59
2022/03/11 04:37:14;;;;;;;28.20;20.97;;;;;;;;;;2070030;28;20270;-60
2022/03/11 04:38:14;;;;;;;29.70;20.97;;;;;;;;;;2067550;28;20240;-60
2022/03/11 04:39:15;;;;;;;31.13;21.87;;;;;;;;;;2073486;28;20180;-59
2022/03/11 04:40:16;;;;;;;27.00;21.63;;;;;;;;;;2073683;28;20177;-60
2022/03/11 04:41:16;;;;;;;28.47;21.10;;;;;;;;;;2064890;28;20172;-59
2022/03/11 04:42:16;;;;;;;29.03;20.17;;;;;;;;;;2064900;28;20185;-59
2022/03/11 04:43:16;;;;;;;28.13;20.33;;;;;;;;;;2073229;28;20189;-60
2022/03/11 04:44:16;;;;;;;30.43;21.57;;;;;;;;;;2072253;28;20177;-59
2022/03/11 04:45:17;;;;;;;26.13;20.50;;;;;;;;;;2072898;28;20611;-60
2022/03/11 04:46:18;;;;;;;28.37;21.70;;;;;;;;;;2072642;28;20260;-61
2022/03/11 04:47:18;;;;;;;27.40;20.70;;;;;;;;;;2073530;28;20208;-57
2022/03/11 04:48:18;;;;;;;31.63;21.90;;;;;;;;;;2073009;28;20234;-56
2022/03/11 04:49:18;;;;;;;28.23;21.97;;;;;;;;;;2071697;28;20177;-60
2022/03/11 04:50:19;;;;;;;31.67;22.07;;;;;;;;;;2064879;28;20252;-59
2022/03/11 04:51:22;;;;;;;30.80;21.53;;;;;;;;;;2064467;28;20708;-61
2022/03/11 04:52:22;;;;;;;27.27;20.80;;;;;;;;;;2064718;28;20188;-58
2022/03/11 04:53:23;;;;;;;29.97;20.57;;;;;;;;;;2072913;28;20199;-59
2022/03/11 04:54:23;;;;;;;28.63;22.23;;;;;;;;;;2073072;28;20209;-58
2022/03/11 04:55:23;;;;;;;28.93;22.80;;;;;;;;;;2071414;28;20208;-60
2022/03/11 04:56:24;;;;;;;28.00;20.90;;;;;;;;;;2064296;28;20280;-58
2022/03/11 04:57:24;;;;;;;27.40;20.43;;;;;;;;;;2070960;28;21017;-60
2022/03/11 04:58:24;;;;;;;27.20;21.90;;;;;;;;;;2073206;28;20173;-59
2022/03/11 04:59:25;;;;;;;29.17;21.53;;;;;;;;;;2073486;28;20184;-61
2022/03/11 05:00:25;;;;;;;29.73;20.70;;;;;;;;;;2073205;28;20211;-60
2022/03/11 05:01:26;;;;;;;28.93;21.97;;;;;;;;;;2072164;28;20176;-59
2022/03/11 05:02:27;;;;;;;29.53;21.90;;;;;;;;;;2073457;28;20267;-60
2022/03/11 05:03:27;;;;;;;28.13;20.87;;;;;;;;;;2073185;28;20250;-54
2022/03/11 05:04:28;;;;;;;25.67;20.73;;;;;;;;;;2072141;28;20473;-59
2022/03/11 05:05:29;;;;;;;28.73;21.30;;;;;;;;;;2065418;28;20236;-61
2022/03/11 05:06:29;;;;;;;30.73;21.40;;;;;;;;;;2072873;28;20668;-61
2022/03/11 05:07:30;;;;;;;29.67;20.50;;;;;;;;;;2073499;28;20179;-60
2022/03/11 05:08:30;;;;;;;27.03;20.77;;;;;;;;;;2071768;28;20248;-59
2022/03/11 05:09:30;;;;;;;28.03;21.07;;;;;;;;;;2067584;28;20741;-61
2022/03/11 05:10:31;;;;;;;29.43;21.17;;;;;;;;;;2072345;28;20176;-60
2022/03/11 05:11:32;;;;;;;29.90;21.97;;;;;;;;;;2073146;28;20556;-62
2022/03/11 05:12:32;;;;;;;30.30;21.90;;;;;;;;;;2069000;28;20173;-62
2022/03/11 05:13:32;;;;;;;27.80;21.30;;;;;;;;;;2057690;28;20197;-58
2022/03/11 05:14:33;;;;;;;30.50;22.33;;;;;;;;;;2073445;28;20193;-58
2022/03/11 05:15:35;;;;;;;29.33;21.43;;;;;;;;;;2065725;28;20181;-61
2022/03/11 05:16:35;;;;;;;30.63;21.80;;;;;;;;;;2063036;28;20915;-60
2022/03/11 05:17:35;;;;;;;31.13;21.10;;;;;;;;;;2066789;28;20169;-60
2022/03/11 05:18:36;;;;;;;33.30;22.63;;;;;;;;;;2073795;28;20685;-61
2022/03/11 05:19:39;;;;;;;32.90;20.97;;;;;;;;;;2060027;28;20572;-63
2022/03/11 05:20:39;;;;;;;28.33;21.67;;;;;;;;;;2073866;28;20245;-62
2022/03/11 05:21:39;;;;;;;29.10;20.97;;;;;;;;;;2074579;28;21134;-60
2022/03/11 05:22:42;;;;;;;28.43;20.60;;;;;;;;;;2076333;28;20169;-62
2022/03/11 05:23:42;;;;;;;30.17;21.40;;;;;;;;;;2075039;28;20208;-62
2022/03/11 05:24:42;;;;;;;30.60;20.83;;;;;;;;;;2065720;28;20458;-62
2022/03/11 05:25:42;;;;;;;29.20;20.37;;;;;;;;;;2072300;28;20188;-62
2022/03/11 05:26:43;;;;;;;30.20;21.43;;;;;;;;;;2073446;28;20183;-62
2022/03/11 05:27:43;;;;;;;32.10;21.17;;;;;;;;;;2074064;28;20638;-61
2022/03/11 05:28:43;;;;;;;29.23;21.10;;;;;;;;;;2073962;28;20642;-63
2022/03/11 05:29:43;;;;;;;29.40;21.23;;;;;;;;;;2069389;28;20197;-60
2022/03/11 05:30:44;;;;;;;28.57;21.67;;;;;;;;;;2065743;28;20201;-61
2022/03/11 05:31:44;;;;;;;30.27;21.27;;;;;;;;;;2074429;28;20161;-60
2022/03/11 05:32:45;;;;;;;25.30;20.23;;;;;;;;;;2074699;28;20180;-60
2022/03/11 05:33:45;;;;;;;31.20;21.60;;;;;;;;;;2073971;28;20197;-61
2022/03/11 05:34:45;;;;;;;28.70;21.07;;;;;;;;;;2073490;28;20250;-62
2022/03/11 05:35:46;;;;;;;28.83;20.67;;;;;;;;;;2074171;28;20180;-61
2022/03/11 05:36:46;;;;;;;28.40;20.50;;;;;;;;;;2074184;28;20200;-59
2022/03/11 05:37:47;;;;;;;29.73;21.03;;;;;;;;;;2073977;28;20184;-61
2022/03/11 05:38:47;;;;;;;29.10;20.53;;;;;;;;;;2073966;28;20941;-61
2022/03/11 05:39:48;;;;;;;31.20;21.80;;;;;;;;;;2074084;28;20645;-64
2022/03/11 05:40:48;;;;;;;29.77;21.17;;;;;;;;;;2074220;28;20764;-60
2022/03/11 05:41:48;;;;;;;24.87;19.60;;;;;;;;;;2073880;28;20169;-62
2022/03/11 05:42:48;;;;;;;31.43;21.23;;;;;;;;;;2065329;28;20631;-60
2022/03/11 05:43:49;;;;;;;27.70;20.60;;;;;;;;;;2065248;28;20217;-62
2022/03/11 05:44:49;;;;;;;28.30;21.63;;;;;;;;;;2065241;28;20182;-63
2022/03/11 05:45:49;;;;;;;25.27;19.77;;;;;;;;;;2066041;28;20201;-62
2022/03/11 05:46:50;;;;;;;33.93;21.00;;;;;;;;;;2065295;28;20165;-60
2022/03/11 05:47:50;;;;;;;28.17;21.63;;;;;;;;;;2065496;28;20177;-60
2022/03/11 05:48:50;;;;;;;29.13;22.10;;;;;;;;;;2065574;28;20656;-64
2022/03/11 05:49:50;;;;;;;31.47;22.30;;;;;;;;;;2065596;28;20173;-59
2022/03/11 05:50:51;;;;;;;32.67;22.23;;;;;;;;;;2074065;28;20173;-62
2022/03/11 05:51:52;;;;;;;31.63;22.50;;;;;;;;;;2072670;28;20177;-62
2022/03/11 05:52:52;;;;;;;28.27;21.60;;;;;;;;;;2073262;28;20191;-60